RYR6041 LFMK-GMTT
Flight info
| Callsign | RYR6041 |
|---|---|
| Flight time | 1h 48m |
| Altitude | 37000 |
| Route | GALDO DCT MAQAB DCT TIVLI N869 ZAR Z245 CJN N10 LINTO DCT NOLRO |
| Aircraft | B38M/M-SADE3FGILRWY/SB1 |
Departure
| Time | 2026-05-07 09:36 |
|---|---|
| Airport | Carcassonne Salvaza Airport (LFMK) |
Arrival
| Time | 2026-05-07 11:25 |
|---|---|
| Airport | Tangier Ibn Battuta Airport (GMTT) |
| Time | Latitude | Longitude | Altitude | Speed | Heading |
|---|---|---|---|---|---|
| 2026-05-07 09:23 | 43.21397 | 2.30562 | 426 ft | 0 kts | 240° |
| 2026-05-07 09:32 | 43.21399 | 2.30548 | 418 ft | 5 kts | 294° |
| 2026-05-07 09:32 | 43.21435 | 2.30557 | 418 ft | 7 kts | 51° |
| 2026-05-07 09:32 | 43.21444 | 2.30633 | 426 ft | 10 kts | 92° |
| 2026-05-07 09:33 | 43.21471 | 2.30724 | 426 ft | 12 kts | 63° |
| 2026-05-07 09:33 | 43.21496 | 2.30835 | 423 ft | 12 kts | 38° |
| 2026-05-07 09:33 | 43.21564 | 2.30864 | 421 ft | 10 kts | 50° |
| 2026-05-07 09:33 | 43.21572 | 2.30960 | 419 ft | 11 kts | 92° |
| 2026-05-07 09:34 | 43.21564 | 2.31081 | 423 ft | 14 kts | 96° |
| 2026-05-07 09:34 | 43.21552 | 2.31224 | 421 ft | 16 kts | 97° |
| 2026-05-07 09:34 | 43.21537 | 2.31385 | 422 ft | 18 kts | 97° |
| 2026-05-07 09:34 | 43.21523 | 2.31568 | 426 ft | 20 kts | 95° |
| 2026-05-07 09:35 | 43.21523 | 2.31752 | 428 ft | 19 kts | 59° |
| 2026-05-07 09:35 | 43.21519 | 2.31793 | 425 ft | 2 kts | 182° |
| 2026-05-07 09:35 | 43.21510 | 2.31755 | 418 ft | 8 kts | 275° |
| 2026-05-07 09:35 | 43.21512 | 2.31725 | 428 ft | 0 kts | 276° |
| 2026-05-07 09:36 | 43.21513 | 2.31704 | 428 ft | 7 kts | 276° |
| 2026-05-07 09:36 | 43.21547 | 2.31280 | 424 ft | 90 kts | 276° |
| 2026-05-07 09:36 | 43.21632 | 2.30068 | 495 ft | 157 kts | 274° |
| 2026-05-07 09:36 | 43.21714 | 2.28489 | 1296 ft | 172 kts | 275° |
| 2026-05-07 09:37 | 43.21826 | 2.26822 | 2332 ft | 180 kts | 278° |
| 2026-05-07 09:37 | 43.21988 | 2.25028 | 2949 ft | 202 kts | 278° |
| 2026-05-07 09:37 | 43.22168 | 2.22991 | 3554 ft | 227 kts | 277° |
| 2026-05-07 09:37 | 43.22359 | 2.20745 | 4291 ft | 247 kts | 277° |
| 2026-05-07 09:38 | 43.22558 | 2.18323 | 5089 ft | 262 kts | 276° |
| 2026-05-07 09:38 | 43.22756 | 2.15847 | 6274 ft | 260 kts | 276° |
| 2026-05-07 09:38 | 43.22954 | 2.13366 | 7307 ft | 264 kts | 276° |
| 2026-05-07 09:38 | 43.23151 | 2.10868 | 8282 ft | 269 kts | 276° |
| 2026-05-07 09:39 | 43.23353 | 2.08300 | 9297 ft | 273 kts | 276° |
| 2026-05-07 09:39 | 43.23557 | 2.05692 | 10240 ft | 278 kts | 276° |
| 2026-05-07 09:39 | 43.23767 | 2.02979 | 10820 ft | 296 kts | 276° |
| 2026-05-07 09:39 | 43.23990 | 2.00101 | 11427 ft | 310 kts | 276° |
| 2026-05-07 09:40 | 43.24221 | 1.97117 | 12213 ft | 317 kts | 275° |
| 2026-05-07 09:40 | 43.24454 | 1.94092 | 13126 ft | 321 kts | 275° |
| 2026-05-07 09:40 | 43.24691 | 1.91018 | 13964 ft | 327 kts | 275° |
| 2026-05-07 09:40 | 43.24931 | 1.87889 | 14719 ft | 333 kts | 275° |
| 2026-05-07 09:41 | 43.25174 | 1.84711 | 15537 ft | 336 kts | 274° |
| 2026-05-07 09:41 | 43.25419 | 1.81502 | 16352 ft | 340 kts | 274° |
| 2026-05-07 09:41 | 43.25666 | 1.78252 | 17146 ft | 344 kts | 274° |
| 2026-05-07 09:41 | 43.25925 | 1.74959 | 17929 ft | 348 kts | 276° |
| 2026-05-07 09:42 | 43.26305 | 1.71653 | 18642 ft | 352 kts | 277° |
| 2026-05-07 09:42 | 43.26684 | 1.68320 | 19326 ft | 355 kts | 277° |
| 2026-05-07 09:42 | 43.27055 | 1.65001 | 19996 ft | 358 kts | 276° |
| 2026-05-07 09:42 | 43.27430 | 1.61615 | 20650 ft | 360 kts | 276° |
| 2026-05-07 09:43 | 43.27806 | 1.58199 | 21300 ft | 363 kts | 276° |
| 2026-05-07 09:43 | 43.28183 | 1.54760 | 21947 ft | 366 kts | 276° |
| 2026-05-07 09:43 | 43.28562 | 1.51293 | 22594 ft | 369 kts | 276° |
| 2026-05-07 09:43 | 43.28943 | 1.47800 | 23217 ft | 371 kts | 276° |
| 2026-05-07 09:44 | 43.29326 | 1.44279 | 23790 ft | 374 kts | 276° |
| 2026-05-07 09:44 | 43.29710 | 1.40735 | 24306 ft | 377 kts | 276° |
| 2026-05-07 09:44 | 43.30096 | 1.37165 | 24826 ft | 379 kts | 276° |
| 2026-05-07 09:44 | 43.30483 | 1.33573 | 25320 ft | 381 kts | 276° |
| 2026-05-07 09:45 | 43.30871 | 1.29961 | 25820 ft | 384 kts | 276° |
| 2026-05-07 09:45 | 43.31261 | 1.26323 | 26307 ft | 386 kts | 276° |
| 2026-05-07 09:45 | 43.31651 | 1.22668 | 26796 ft | 388 kts | 276° |
| 2026-05-07 09:45 | 43.32042 | 1.18989 | 27262 ft | 390 kts | 276° |
| 2026-05-07 09:46 | 43.32435 | 1.15291 | 27727 ft | 393 kts | 276° |
| 2026-05-07 09:46 | 43.32829 | 1.11565 | 28177 ft | 395 kts | 275° |
| 2026-05-07 09:46 | 43.33224 | 1.07815 | 28617 ft | 398 kts | 275° |
| 2026-05-07 09:46 | 43.33620 | 1.04042 | 29068 ft | 400 kts | 275° |
| 2026-05-07 09:47 | 43.34018 | 1.00247 | 29498 ft | 402 kts | 275° |
| 2026-05-07 09:47 | 43.34417 | 0.96428 | 29921 ft | 405 kts | 275° |
| 2026-05-07 09:47 | 43.34818 | 0.92574 | 30305 ft | 407 kts | 275° |
| 2026-05-07 09:47 | 43.35218 | 0.88712 | 30648 ft | 409 kts | 275° |
| 2026-05-07 09:48 | 43.35618 | 0.84838 | 30996 ft | 411 kts | 275° |
| 2026-05-07 09:48 | 43.36020 | 0.80938 | 31333 ft | 413 kts | 275° |
| 2026-05-07 09:48 | 43.36423 | 0.77016 | 31684 ft | 415 kts | 275° |
| 2026-05-07 09:48 | 43.36825 | 0.73077 | 32015 ft | 417 kts | 275° |
| 2026-05-07 09:49 | 43.37230 | 0.69112 | 32314 ft | 420 kts | 275° |
| 2026-05-07 09:49 | 43.37629 | 0.65176 | 32638 ft | 422 kts | 275° |
| 2026-05-07 09:49 | 43.38040 | 0.61118 | 32961 ft | 424 kts | 275° |
| 2026-05-07 09:49 | 43.38441 | 0.57145 | 33282 ft | 426 kts | 275° |
| 2026-05-07 09:50 | 43.38845 | 0.53117 | 33697 ft | 425 kts | 275° |
| 2026-05-07 09:50 | 43.39248 | 0.49100 | 34125 ft | 424 kts | 274° |
| 2026-05-07 09:50 | 43.39655 | 0.45034 | 34467 ft | 423 kts | 275° |
| 2026-05-07 09:50 | 43.40049 | 0.41073 | 34806 ft | 423 kts | 275° |
| 2026-05-07 09:51 | 43.40443 | 0.37061 | 35144 ft | 423 kts | 273° |
| 2026-05-07 09:51 | 43.40419 | 0.33056 | 35425 ft | 418 kts | 258° |
| 2026-05-07 09:51 | 43.39559 | 0.29271 | 35734 ft | 414 kts | 243° |
| 2026-05-07 09:51 | 43.37998 | 0.25963 | 35976 ft | 414 kts | 229° |
| 2026-05-07 09:52 | 43.36001 | 0.23100 | 36245 ft | 415 kts | 225° |
| 2026-05-07 09:52 | 43.33920 | 0.20339 | 36493 ft | 416 kts | 224° |
| 2026-05-07 09:52 | 43.31787 | 0.17641 | 36769 ft | 417 kts | 223° |
| 2026-05-07 09:52 | 43.29630 | 0.14974 | 36999 ft | 418 kts | 223° |
| 2026-05-07 09:53 | 43.27457 | 0.12322 | 37028 ft | 418 kts | 222° |
| 2026-05-07 09:53 | 43.23103 | 0.07066 | 37014 ft | 416 kts | 222° |
| 2026-05-07 09:54 | 43.18769 | 0.01859 | 37000 ft | 417 kts | 222° |
| 2026-05-07 09:54 | 43.14399 | -0.03378 | 37018 ft | 418 kts | 222° |
| 2026-05-07 09:55 | 43.10016 | -0.08622 | 37022 ft | 418 kts | 222° |
| 2026-05-07 09:55 | 43.05633 | -0.13856 | 37019 ft | 418 kts | 221° |
| 2026-05-07 09:56 | 43.01244 | -0.19084 | 37023 ft | 418 kts | 222° |
| 2026-05-07 09:56 | 42.96860 | -0.24299 | 37012 ft | 418 kts | 221° |
| 2026-05-07 09:57 | 42.92475 | -0.29505 | 36988 ft | 417 kts | 221° |
| 2026-05-07 09:57 | 42.88088 | -0.34702 | 36978 ft | 418 kts | 221° |
| 2026-05-07 09:58 | 42.83698 | -0.39894 | 37022 ft | 419 kts | 221° |
| 2026-05-07 09:58 | 42.78924 | -0.44337 | 36998 ft | 418 kts | 202° |
| 2026-05-07 09:59 | 42.73495 | -0.47309 | 37004 ft | 421 kts | 204° |
| 2026-05-07 09:59 | 42.68067 | -0.50214 | 36987 ft | 421 kts | 203° |
| 2026-05-07 10:00 | 42.62600 | -0.53092 | 36985 ft | 421 kts | 203° |
| 2026-05-07 10:00 | 42.57129 | -0.55962 | 36989 ft | 420 kts | 203° |
| 2026-05-07 10:01 | 42.51676 | -0.58817 | 36998 ft | 420 kts | 203° |
| 2026-05-07 10:01 | 42.46215 | -0.61670 | 36989 ft | 420 kts | 203° |
| 2026-05-07 10:02 | 42.40748 | -0.64522 | 36991 ft | 420 kts | 203° |
| 2026-05-07 10:02 | 42.35323 | -0.67346 | 36978 ft | 420 kts | 203° |
| 2026-05-07 10:03 | 42.29863 | -0.70183 | 36990 ft | 420 kts | 202° |
| 2026-05-07 10:03 | 42.24411 | -0.73010 | 36995 ft | 420 kts | 202° |
| 2026-05-07 10:04 | 42.18958 | -0.75834 | 36979 ft | 420 kts | 202° |
| 2026-05-07 10:04 | 42.13508 | -0.78650 | 37001 ft | 420 kts | 202° |
| 2026-05-07 10:05 | 42.08050 | -0.81465 | 36997 ft | 420 kts | 202° |
| 2026-05-07 10:05 | 42.02589 | -0.84277 | 37001 ft | 420 kts | 202° |
| 2026-05-07 10:06 | 41.98053 | -0.86607 | 36996 ft | 419 kts | 202° |
| 2026-05-07 10:06 | 41.92610 | -0.89400 | 36992 ft | 418 kts | 202° |
| 2026-05-07 10:07 | 41.87172 | -0.92185 | 36999 ft | 418 kts | 202° |
| 2026-05-07 10:07 | 41.81732 | -0.94966 | 36993 ft | 418 kts | 202° |
| 2026-05-07 10:08 | 41.76297 | -0.97738 | 36972 ft | 418 kts | 202° |
| 2026-05-07 10:08 | 41.70901 | -1.00487 | 36995 ft | 417 kts | 202° |
| 2026-05-07 10:09 | 41.65632 | -1.03630 | 36966 ft | 413 kts | 218° |
| 2026-05-07 10:09 | 41.61275 | -1.08648 | 36962 ft | 414 kts | 221° |
| 2026-05-07 10:10 | 41.56969 | -1.13760 | 36994 ft | 414 kts | 222° |
| 2026-05-07 10:10 | 41.52675 | -1.18920 | 36989 ft | 416 kts | 222° |
| 2026-05-07 10:11 | 41.48367 | -1.24100 | 37004 ft | 417 kts | 222° |
| 2026-05-07 10:11 | 41.44089 | -1.29236 | 36993 ft | 417 kts | 222° |
| 2026-05-07 10:12 | 41.39781 | -1.34398 | 36992 ft | 416 kts | 222° |
| 2026-05-07 10:12 | 41.35462 | -1.39564 | 36971 ft | 416 kts | 222° |
| 2026-05-07 10:13 | 41.31150 | -1.44712 | 36990 ft | 415 kts | 222° |
| 2026-05-07 10:13 | 41.26847 | -1.49841 | 36988 ft | 415 kts | 222° |
| 2026-05-07 10:14 | 41.22539 | -1.54964 | 36976 ft | 416 kts | 221° |
| 2026-05-07 10:14 | 41.18243 | -1.60065 | 36977 ft | 417 kts | 221° |
| 2026-05-07 10:15 | 41.13917 | -1.65192 | 36982 ft | 417 kts | 221° |
| 2026-05-07 10:15 | 41.09589 | -1.70311 | 36966 ft | 416 kts | 221° |
| 2026-05-07 10:16 | 41.05265 | -1.75419 | 36967 ft | 416 kts | 221° |
| 2026-05-07 10:16 | 41.00940 | -1.80512 | 36964 ft | 416 kts | 221° |
| 2026-05-07 10:17 | 40.96609 | -1.85605 | 36968 ft | 416 kts | 221° |
| 2026-05-07 10:17 | 40.92277 | -1.90689 | 36972 ft | 416 kts | 221° |
| 2026-05-07 10:18 | 40.87956 | -1.95753 | 36956 ft | 418 kts | 221° |
| 2026-05-07 10:18 | 40.83609 | -2.00836 | 36966 ft | 417 kts | 221° |
| 2026-05-07 10:19 | 40.79263 | -2.05910 | 36959 ft | 417 kts | 221° |
| 2026-05-07 10:19 | 40.74905 | -2.10989 | 36962 ft | 417 kts | 221° |
| 2026-05-07 10:20 | 40.70575 | -2.16017 | 36966 ft | 417 kts | 221° |
| 2026-05-07 10:20 | 40.66214 | -2.21071 | 36971 ft | 417 kts | 221° |
| 2026-05-07 10:21 | 40.61848 | -2.26120 | 36959 ft | 417 kts | 221° |
| 2026-05-07 10:21 | 40.57485 | -2.31157 | 36962 ft | 418 kts | 221° |
| 2026-05-07 10:22 | 40.53106 | -2.36203 | 36957 ft | 418 kts | 221° |
| 2026-05-07 10:22 | 40.48728 | -2.41240 | 36953 ft | 418 kts | 221° |
| 2026-05-07 10:23 | 40.44345 | -2.46273 | 36949 ft | 418 kts | 220° |
| 2026-05-07 10:23 | 40.39992 | -2.51262 | 36951 ft | 417 kts | 220° |
| 2026-05-07 10:24 | 40.35858 | -2.56592 | 36969 ft | 417 kts | 230° |
| 2026-05-07 10:24 | 40.32129 | -2.62456 | 36950 ft | 418 kts | 229° |
| 2026-05-07 10:25 | 40.28399 | -2.68317 | 36982 ft | 419 kts | 229° |
| 2026-05-07 10:25 | 40.24664 | -2.74181 | 36946 ft | 419 kts | 229° |
| 2026-05-07 10:26 | 40.20921 | -2.80046 | 36947 ft | 419 kts | 229° |
| 2026-05-07 10:26 | 40.17209 | -2.85852 | 36965 ft | 418 kts | 229° |
| 2026-05-07 10:27 | 40.13466 | -2.91694 | 36961 ft | 418 kts | 229° |
| 2026-05-07 10:27 | 40.09724 | -2.97524 | 36954 ft | 418 kts | 229° |
| 2026-05-07 10:28 | 40.05977 | -3.03352 | 36955 ft | 418 kts | 229° |
| 2026-05-07 10:28 | 40.02232 | -3.09165 | 36953 ft | 419 kts | 229° |
| 2026-05-07 10:29 | 39.98475 | -3.14986 | 36933 ft | 419 kts | 229° |
| 2026-05-07 10:29 | 39.94749 | -3.20747 | 36936 ft | 418 kts | 229° |
| 2026-05-07 10:30 | 39.89118 | -3.29435 | 36946 ft | 418 kts | 229° |
| 2026-05-07 10:30 | 39.85366 | -3.35210 | 36939 ft | 418 kts | 229° |
| 2026-05-07 10:31 | 39.81611 | -3.40981 | 36934 ft | 417 kts | 229° |
| 2026-05-07 10:31 | 39.77831 | -3.46657 | 36929 ft | 418 kts | 224° |
| 2026-05-07 10:32 | 39.73709 | -3.52023 | 36914 ft | 419 kts | 225° |
| 2026-05-07 10:32 | 39.69612 | -3.57441 | 36922 ft | 419 kts | 225° |
| 2026-05-07 10:33 | 39.65528 | -3.62848 | 36934 ft | 419 kts | 225° |
| 2026-05-07 10:33 | 39.61463 | -3.68220 | 36929 ft | 419 kts | 225° |
| 2026-05-07 10:34 | 39.57371 | -3.73620 | 36930 ft | 419 kts | 225° |
| 2026-05-07 10:34 | 39.53268 | -3.78985 | 36926 ft | 419 kts | 225° |
| 2026-05-07 10:35 | 39.49150 | -3.84361 | 36917 ft | 422 kts | 226° |
| 2026-05-07 10:35 | 39.45011 | -3.89756 | 36927 ft | 425 kts | 226° |
| 2026-05-07 10:36 | 39.40839 | -3.95183 | 36931 ft | 425 kts | 226° |
| 2026-05-07 10:36 | 39.36666 | -4.00603 | 36931 ft | 425 kts | 226° |
| 2026-05-07 10:37 | 39.32488 | -4.06019 | 36938 ft | 425 kts | 226° |
| 2026-05-07 10:37 | 39.28312 | -4.11424 | 36932 ft | 425 kts | 226° |
| 2026-05-07 10:38 | 39.24136 | -4.16817 | 36928 ft | 424 kts | 226° |
| 2026-05-07 10:38 | 39.19990 | -4.22163 | 36926 ft | 424 kts | 226° |
| 2026-05-07 10:39 | 39.15813 | -4.27540 | 36920 ft | 424 kts | 226° |
| 2026-05-07 10:39 | 39.11637 | -4.32904 | 36930 ft | 424 kts | 226° |
| 2026-05-07 10:40 | 39.07463 | -4.38259 | 36919 ft | 424 kts | 226° |
| 2026-05-07 10:40 | 39.03277 | -4.43617 | 36897 ft | 423 kts | 226° |
| 2026-05-07 10:41 | 38.99145 | -4.48900 | 36915 ft | 421 kts | 226° |
| 2026-05-07 10:41 | 38.94989 | -4.54204 | 36920 ft | 421 kts | 226° |
| 2026-05-07 10:42 | 38.90825 | -4.59502 | 36915 ft | 422 kts | 227° |
| 2026-05-07 10:42 | 38.86630 | -4.64833 | 36913 ft | 425 kts | 227° |
| 2026-05-07 10:43 | 38.82429 | -4.70162 | 36908 ft | 424 kts | 227° |
| 2026-05-07 10:43 | 38.78253 | -4.75451 | 36894 ft | 424 kts | 227° |
| 2026-05-07 10:44 | 38.74054 | -4.80758 | 36902 ft | 424 kts | 227° |
| 2026-05-07 10:44 | 38.69856 | -4.86056 | 36907 ft | 424 kts | 227° |
| 2026-05-07 10:45 | 38.65651 | -4.91352 | 36907 ft | 424 kts | 227° |
| 2026-05-07 10:45 | 38.61445 | -4.96641 | 36904 ft | 424 kts | 228° |
| 2026-05-07 10:46 | 38.57225 | -5.01939 | 36912 ft | 426 kts | 228° |
| 2026-05-07 10:46 | 38.53020 | -5.07211 | 36895 ft | 425 kts | 229° |
| 2026-05-07 10:47 | 38.50801 | -5.09701 | 36888 ft | 429 kts | 218° |
| 2026-05-07 10:47 | 38.48148 | -5.11498 | 36937 ft | 433 kts | 211° |
| 2026-05-07 10:47 | 38.42752 | -5.14960 | 36909 ft | 434 kts | 211° |
| 2026-05-07 10:48 | 38.37306 | -5.18369 | 36905 ft | 435 kts | 211° |
| 2026-05-07 10:48 | 38.31858 | -5.21751 | 36911 ft | 435 kts | 211° |
| 2026-05-07 10:49 | 38.26445 | -5.25102 | 36919 ft | 435 kts | 211° |
| 2026-05-07 10:49 | 38.20995 | -5.28472 | 36916 ft | 435 kts | 211° |
| 2026-05-07 10:50 | 38.15543 | -5.31836 | 36918 ft | 436 kts | 211° |
| 2026-05-07 10:50 | 38.10093 | -5.35194 | 36922 ft | 436 kts | 212° |
| 2026-05-07 10:51 | 38.04629 | -5.38555 | 36922 ft | 436 kts | 212° |
| 2026-05-07 10:51 | 37.99183 | -5.41899 | 36926 ft | 434 kts | 212° |
| 2026-05-07 10:52 | 37.93776 | -5.45213 | 36929 ft | 434 kts | 212° |
| 2026-05-07 10:52 | 37.88333 | -5.48544 | 36929 ft | 434 kts | 212° |
| 2026-05-07 10:53 | 37.82892 | -5.51869 | 36931 ft | 434 kts | 212° |
| 2026-05-07 10:53 | 37.77470 | -5.55177 | 36928 ft | 431 kts | 213° |
| 2026-05-07 10:54 | 37.72064 | -5.58469 | 36930 ft | 431 kts | 213° |
| 2026-05-07 10:54 | 37.67563 | -5.61206 | 36931 ft | 432 kts | 213° |
| 2026-05-07 10:55 | 37.62153 | -5.64491 | 36929 ft | 431 kts | 213° |
| 2026-05-07 10:55 | 37.56738 | -5.67773 | 36911 ft | 431 kts | 213° |
| 2026-05-07 10:56 | 37.51377 | -5.71019 | 36417 ft | 425 kts | 213° |
| 2026-05-07 10:56 | 37.48735 | -5.72618 | 35624 ft | 428 kts | 214° |
| 2026-05-07 10:56 | 37.46048 | -5.74242 | 35048 ft | 427 kts | 215° |
| 2026-05-07 10:57 | 37.43354 | -5.75802 | 34584 ft | 429 kts | 209° |
| 2026-05-07 10:57 | 37.40380 | -5.76633 | 34079 ft | 445 kts | 195° |
| 2026-05-07 10:57 | 37.37330 | -5.77152 | 33587 ft | 439 kts | 199° |
| 2026-05-07 10:57 | 37.34319 | -5.77737 | 33065 ft | 437 kts | 198° |
| 2026-05-07 10:58 | 37.31320 | -5.78297 | 32531 ft | 435 kts | 198° |
| 2026-05-07 10:58 | 37.28329 | -5.78846 | 32063 ft | 432 kts | 198° |
| 2026-05-07 10:58 | 37.25360 | -5.79386 | 31580 ft | 429 kts | 198° |
| 2026-05-07 10:58 | 37.22409 | -5.79922 | 31102 ft | 427 kts | 198° |
| 2026-05-07 10:59 | 37.19471 | -5.80455 | 30625 ft | 425 kts | 198° |
| 2026-05-07 10:59 | 37.16543 | -5.80985 | 30153 ft | 424 kts | 198° |
| 2026-05-07 10:59 | 37.13630 | -5.81512 | 29638 ft | 422 kts | 198° |
| 2026-05-07 10:59 | 37.10761 | -5.82031 | 29144 ft | 420 kts | 198° |
| 2026-05-07 11:00 | 37.07882 | -5.82551 | 28646 ft | 416 kts | 197° |
| 2026-05-07 11:00 | 37.05029 | -5.83067 | 28240 ft | 412 kts | 198° |
| 2026-05-07 11:00 | 37.02200 | -5.83577 | 27814 ft | 408 kts | 198° |
| 2026-05-07 11:00 | 36.99397 | -5.84083 | 27386 ft | 406 kts | 198° |
| 2026-05-07 11:01 | 36.96610 | -5.84584 | 26968 ft | 403 kts | 198° |
| 2026-05-07 11:01 | 36.93840 | -5.85083 | 26525 ft | 401 kts | 198° |
| 2026-05-07 11:01 | 36.91082 | -5.85579 | 26108 ft | 399 kts | 198° |
| 2026-05-07 11:01 | 36.88340 | -5.86072 | 25694 ft | 397 kts | 198° |
| 2026-05-07 11:02 | 36.85613 | -5.86562 | 25281 ft | 394 kts | 198° |
| 2026-05-07 11:02 | 36.82920 | -5.87044 | 24838 ft | 388 kts | 198° |
| 2026-05-07 11:02 | 36.80271 | -5.87521 | 24462 ft | 381 kts | 198° |
| 2026-05-07 11:02 | 36.77666 | -5.87987 | 24073 ft | 375 kts | 198° |
| 2026-05-07 11:03 | 36.75096 | -5.88448 | 23689 ft | 370 kts | 198° |
| 2026-05-07 11:03 | 36.72571 | -5.88900 | 23266 ft | 364 kts | 198° |
| 2026-05-07 11:03 | 36.70107 | -5.89340 | 22839 ft | 359 kts | 198° |
| 2026-05-07 11:03 | 36.67663 | -5.89777 | 22466 ft | 352 kts | 197° |
| 2026-05-07 11:04 | 36.65256 | -5.90207 | 22103 ft | 345 kts | 197° |
| 2026-05-07 11:04 | 36.62905 | -5.90627 | 21751 ft | 338 kts | 197° |
| 2026-05-07 11:04 | 36.60601 | -5.91038 | 21402 ft | 332 kts | 197° |
| 2026-05-07 11:04 | 36.58338 | -5.91441 | 21032 ft | 325 kts | 197° |
| 2026-05-07 11:05 | 36.56117 | -5.91838 | 20724 ft | 322 kts | 197° |
| 2026-05-07 11:05 | 36.53874 | -5.92238 | 20395 ft | 328 kts | 196° |
| 2026-05-07 11:05 | 36.51599 | -5.92642 | 20063 ft | 331 kts | 196° |
| 2026-05-07 11:05 | 36.49316 | -5.93049 | 19716 ft | 330 kts | 196° |
| 2026-05-07 11:06 | 36.47048 | -5.93452 | 19378 ft | 328 kts | 195° |
| 2026-05-07 11:06 | 36.44789 | -5.93853 | 19031 ft | 326 kts | 195° |
| 2026-05-07 11:06 | 36.42549 | -5.94251 | 18691 ft | 324 kts | 195° |
| 2026-05-07 11:06 | 36.40323 | -5.94646 | 18358 ft | 322 kts | 195° |
| 2026-05-07 11:07 | 36.38139 | -5.95033 | 17991 ft | 319 kts | 195° |
| 2026-05-07 11:07 | 36.35964 | -5.95419 | 17631 ft | 313 kts | 194° |
| 2026-05-07 11:07 | 36.33826 | -5.95798 | 17294 ft | 306 kts | 195° |
| 2026-05-07 11:07 | 36.31739 | -5.96168 | 16978 ft | 299 kts | 195° |
| 2026-05-07 11:08 | 36.29690 | -5.96531 | 16678 ft | 297 kts | 194° |
| 2026-05-07 11:08 | 36.27616 | -5.96898 | 16355 ft | 303 kts | 194° |
| 2026-05-07 11:08 | 36.25512 | -5.97271 | 16036 ft | 306 kts | 194° |
| 2026-05-07 11:08 | 36.23386 | -5.97551 | 15659 ft | 310 kts | 185° |
| 2026-05-07 11:09 | 36.21263 | -5.97431 | 15352 ft | 306 kts | 182° |
| 2026-05-07 11:09 | 36.19153 | -5.97309 | 15059 ft | 299 kts | 182° |
| 2026-05-07 11:09 | 36.17091 | -5.97196 | 14755 ft | 293 kts | 182° |
| 2026-05-07 11:09 | 36.15076 | -5.97089 | 14448 ft | 288 kts | 182° |
| 2026-05-07 11:10 | 36.13081 | -5.96984 | 14152 ft | 288 kts | 181° |
| 2026-05-07 11:10 | 36.11056 | -5.96878 | 13851 ft | 293 kts | 181° |
| 2026-05-07 11:10 | 36.09008 | -5.96772 | 13507 ft | 294 kts | 181° |
| 2026-05-07 11:10 | 36.06965 | -5.96666 | 13167 ft | 292 kts | 181° |
| 2026-05-07 11:11 | 36.04963 | -5.96563 | 12854 ft | 291 kts | 181° |
| 2026-05-07 11:11 | 36.02950 | -5.96458 | 12547 ft | 289 kts | 181° |
| 2026-05-07 11:11 | 36.00945 | -5.96355 | 12239 ft | 287 kts | 181° |
| 2026-05-07 11:11 | 35.98956 | -5.96251 | 11932 ft | 285 kts | 181° |
| 2026-05-07 11:12 | 35.96976 | -5.96149 | 11630 ft | 283 kts | 181° |
| 2026-05-07 11:12 | 35.95008 | -5.96047 | 11326 ft | 282 kts | 180° |
| 2026-05-07 11:12 | 35.93057 | -5.95946 | 11028 ft | 280 kts | 181° |
| 2026-05-07 11:12 | 35.91116 | -5.95846 | 10730 ft | 278 kts | 181° |
| 2026-05-07 11:13 | 35.89193 | -5.95745 | 10432 ft | 276 kts | 181° |
| 2026-05-07 11:13 | 35.87283 | -5.95647 | 10156 ft | 274 kts | 181° |
| 2026-05-07 11:13 | 35.85389 | -5.95550 | 9882 ft | 271 kts | 181° |
| 2026-05-07 11:13 | 35.83504 | -5.95431 | 9608 ft | 271 kts | 176° |
| 2026-05-07 11:14 | 35.81674 | -5.94881 | 9319 ft | 270 kts | 167° |
| 2026-05-07 11:14 | 35.79902 | -5.94237 | 9013 ft | 268 kts | 167° |
| 2026-05-07 11:14 | 35.78116 | -5.93596 | 8709 ft | 266 kts | 166° |
| 2026-05-07 11:14 | 35.76336 | -5.92960 | 8411 ft | 265 kts | 166° |
| 2026-05-07 11:15 | 35.74585 | -5.92249 | 8091 ft | 266 kts | 154° |
| 2026-05-07 11:15 | 35.73183 | -5.90770 | 7782 ft | 269 kts | 127° |
| 2026-05-07 11:15 | 35.72307 | -5.88735 | 7488 ft | 270 kts | 118° |
| 2026-05-07 11:15 | 35.71505 | -5.86642 | 7188 ft | 270 kts | 117° |
| 2026-05-07 11:16 | 35.70706 | -5.84554 | 6882 ft | 268 kts | 117° |
| 2026-05-07 11:16 | 35.69923 | -5.82496 | 6592 ft | 263 kts | 116° |
| 2026-05-07 11:16 | 35.69264 | -5.80409 | 6282 ft | 260 kts | 107° |
| 2026-05-07 11:16 | 35.68816 | -5.78273 | 5993 ft | 255 kts | 104° |
| 2026-05-07 11:17 | 35.68416 | -5.76193 | 5720 ft | 250 kts | 104° |
| 2026-05-07 11:17 | 35.68031 | -5.74128 | 5447 ft | 245 kts | 105° |
| 2026-05-07 11:17 | 35.67667 | -5.72101 | 5197 ft | 240 kts | 105° |
| 2026-05-07 11:17 | 35.67313 | -5.70109 | 4907 ft | 236 kts | 104° |
| 2026-05-07 11:18 | 35.66972 | -5.68157 | 4628 ft | 231 kts | 104° |
| 2026-05-07 11:18 | 35.66663 | -5.66231 | 4336 ft | 227 kts | 103° |
| 2026-05-07 11:18 | 35.66702 | -5.64299 | 4062 ft | 227 kts | 77° |
| 2026-05-07 11:18 | 35.67425 | -5.62627 | 3913 ft | 220 kts | 46° |
| 2026-05-07 11:19 | 35.68689 | -5.61678 | 3859 ft | 211 kts | 11° |
| 2026-05-07 11:19 | 35.70126 | -5.61693 | 3831 ft | 207 kts | 336° |
| 2026-05-07 11:19 | 35.71284 | -5.62608 | 3816 ft | 194 kts | 304° |
| 2026-05-07 11:19 | 35.71792 | -5.64083 | 3754 ft | 188 kts | 271° |
| 2026-05-07 11:20 | 35.71593 | -5.65650 | 3659 ft | 184 kts | 252° |
| 2026-05-07 11:20 | 35.71302 | -5.67174 | 3504 ft | 182 kts | 257° |
| 2026-05-07 11:20 | 35.71161 | -5.68729 | 3344 ft | 185 kts | 263° |
| 2026-05-07 11:20 | 35.71170 | -5.70300 | 3181 ft | 188 kts | 270° |
| 2026-05-07 11:21 | 35.71283 | -5.71902 | 2951 ft | 188 kts | 272° |
| 2026-05-07 11:21 | 35.71429 | -5.73493 | 2787 ft | 184 kts | 272° |
| 2026-05-07 11:21 | 35.71572 | -5.74980 | 2577 ft | 167 kts | 271° |
| 2026-05-07 11:21 | 35.71701 | -5.76383 | 2354 ft | 163 kts | 271° |
| 2026-05-07 11:22 | 35.71829 | -5.77764 | 2150 ft | 161 kts | 271° |
| 2026-05-07 11:22 | 35.71956 | -5.79089 | 1947 ft | 146 kts | 271° |
| 2026-05-07 11:22 | 35.72064 | -5.80289 | 1765 ft | 138 kts | 271° |
| 2026-05-07 11:22 | 35.72170 | -5.81443 | 1570 ft | 134 kts | 270° |
| 2026-05-07 11:23 | 35.72276 | -5.82574 | 1378 ft | 131 kts | 271° |
| 2026-05-07 11:23 | 35.72377 | -5.83668 | 1222 ft | 130 kts | 272° |
| 2026-05-07 11:23 | 35.72479 | -5.84768 | 1036 ft | 129 kts | 272° |
| 2026-05-07 11:23 | 35.72590 | -5.85898 | 792 ft | 136 kts | 273° |
| 2026-05-07 11:24 | 35.72721 | -5.87023 | 697 ft | 127 kts | 269° |
| 2026-05-07 11:24 | 35.72823 | -5.88122 | 508 ft | 133 kts | 269° |
| 2026-05-07 11:24 | 35.72919 | -5.89237 | 353 ft | 133 kts | 269° |
| 2026-05-07 11:24 | 35.73012 | -5.90360 | 140 ft | 132 kts | 274° |
| 2026-05-07 11:25 | 35.73098 | -5.91441 | 46 ft | 116 kts | 273° |
| 2026-05-07 11:25 | 35.73167 | -5.92204 | 36 ft | 60 kts | 277° |
| 2026-05-07 11:25 | 35.73195 | -5.92486 | 32 ft | 24 kts | 272° |
| 2026-05-07 11:25 | 35.73136 | -5.92609 | 31 ft | 14 kts | 204° |
| 2026-05-07 11:26 | 35.73047 | -5.92569 | 31 ft | 15 kts | 138° |
| 2026-05-07 11:26 | 35.73014 | -5.92442 | 33 ft | 18 kts | 97° |
| 2026-05-07 11:26 | 35.72997 | -5.92260 | 35 ft | 25 kts | 84° |
| 2026-05-07 11:26 | 35.72981 | -5.92025 | 38 ft | 31 kts | 99° |
| 2026-05-07 11:27 | 35.72953 | -5.91790 | 41 ft | 25 kts | 100° |
| 2026-05-07 11:27 | 35.72858 | -5.91674 | 43 ft | 11 kts | 98° |
| 2026-05-07 11:27 | 35.72860 | -5.91637 | 44 ft | 0 kts | 85° |